Main page
METAR-TAF:

METAR-TAF

Airports :

Nador International Airport

Nador, Morocco

latitude: 34-59-20N, longitude: 003-01-42W, elevation: 175 m

Current weather observation

The report was made 48 minutes ago, at 22:00 UTC
Wind 4 kt from the Southwest
Temperature 12°C
Humidity 88%
Pressure 1025 hPa
Visibility 10 km or more
no clouds below 1500 m and no cumulonimbus

METAR: GMMW 272200Z 22004KT CAVOK 12/10 Q1025 NOSIG

Time: 23:48 (22:48 UTC)

Forecast

The report was made 5 hours and 48 minutes ago, at 17:00 UTC
Forecast valid from 27 at 18 UTC to 28 at 24 UTC
Wind 4 kt from the Northeast
Visibility 10 km or more
no clouds below 1500 m and no cumulonimbus

TAF: GMMW 271700Z 2718/2824 05004KT CAVOK

Weather observations and forecasts of more than 4000 airports (METAR and TAF reports).

The available stations are represented by yellow and red dots on the map.

Hover mouse over dot to see the name of the station.

Then click to see weather observations and forecasts.

To change the map : click on the green buttons with a black cross to zoom in, on the green button with a dash to zoom out, or on the green arrows for adjacent maps.


METAR-TAF: